Time;durP1;ratioP1;P1;durP2;ratioP2;P2;SDS_P1;SDS_P2;PMS_P1;PMS_P2;Temp;Humidity;BMP_temperature;BMP_pressure;BME280_temperature;BME280_humidity;BME280_pressure;Samples;Min_cycle;Max_cycle;Signal;HPM_P1;HPM_P2
2021/01/16 00:00:03;;;;;;;9.90;5.72;;;;;;;14.88;67.73;100678.03;5011159;28;20049;-65
2021/01/16 00:02:28;;;;;;;7.15;5.88;;;;;;;14.89;67.63;100673.59;5026555;28;20122;-65
2021/01/16 00:04:54;;;;;;;7.05;4.38;;;;;;;14.88;67.76;100672.72;5029610;28;20038;-64
2021/01/16 00:07:19;;;;;;;9.23;3.03;;;;;;;14.89;67.53;100669.19;5026123;28;20053;-65
2021/01/16 00:09:44;;;;;;;5.85;2.45;;;;;;;14.89;67.27;100657.66;5011512;28;20033;-65
2021/01/16 00:12:10;;;;;;;7.97;2.53;;;;;;;14.89;67.61;100655.00;5010981;28;20034;-65
2021/01/16 00:14:35;;;;;;;8.13;4.32;;;;;;;14.89;67.71;100655.88;5012205;28;20486;-64
2021/01/16 00:17:00;;;;;;;17.77;8.18;;;;;;;14.86;67.72;100655.00;5028781;28;20041;-64
2021/01/16 00:19:26;;;;;;;16.63;8.68;;;;;;;14.80;67.96;100658.56;5015584;28;20042;-65
2021/01/16 00:21:51;;;;;;;18.83;7.47;;;;;;;14.75;67.56;100650.63;5019218;28;20092;-65
2021/01/16 00:24:16;;;;;;;7.20;5.05;;;;;;;14.72;67.82;100647.94;5030191;28;20498;-64
2021/01/16 00:26:41;;;;;;;6.63;4.53;;;;;;;14.70;67.74;100644.41;5029864;28;20071;-64
2021/01/16 00:29:07;;;;;;;11.30;4.15;;;;;;;14.71;67.85;100651.50;5030130;28;20072;-65
2021/01/16 00:31:32;;;;;;;11.38;5.82;;;;;;;14.71;67.75;100659.47;5030087;28;20037;-64
2021/01/16 00:33:58;;;;;;;14.23;8.05;;;;;;;14.70;67.86;100663.00;5043002;28;20049;-64
2021/01/16 00:36:23;;;;;;;14.52;9.43;;;;;;;14.70;68.18;100662.16;5028839;28;20512;-64
2021/01/16 00:38:48;;;;;;;15.52;8.85;;;;;;;14.69;67.90;100655.94;5023173;28;20095;-65
2021/01/16 00:41:14;;;;;;;14.10;6.80;;;;;;;14.67;67.70;100657.72;5019457;28;20530;-64
2021/01/16 00:43:39;;;;;;;11.95;7.72;;;;;;;14.68;67.74;100653.28;5022547;28;20042;-64
2021/01/16 00:46:04;;;;;;;6.65;4.47;;;;;;;14.70;67.77;100659.50;5045419;28;24624;-65
2021/01/16 00:48:30;;;;;;;11.52;3.97;;;;;;;14.71;67.60;100658.59;5028731;28;20052;-64
2021/01/16 00:50:55;;;;;;;6.15;2.67;;;;;;;14.73;67.74;100651.50;5029921;28;20393;-64
2021/01/16 00:53:50;;;;;;;3.70;2.35;;;;;;;14.75;67.86;100644.41;5021808;28;20081;-65
2021/01/16 00:56:15;;;;;;;14.18;5.38;;;;;;;14.77;67.80;100647.06;5011612;28;20314;-64
2021/01/16 00:58:41;;;;;;;7.45;3.33;;;;;;;14.77;67.97;100647.06;5010798;28;20049;-65
2021/01/16 01:01:06;;;;;;;3.60;2.35;;;;;;;14.75;68.09;100633.78;5021782;28;20048;-65
2021/01/16 01:03:31;;;;;;;6.32;3.80;;;;;;;14.77;68.10;100645.28;5028587;28;20048;-65
2021/01/16 01:05:57;;;;;;;10.32;6.65;;;;;;;14.79;67.99;100635.53;5010966;28;20060;-66
2021/01/16 01:08:22;;;;;;;6.32;4.63;;;;;;;14.80;68.06;100637.31;5030398;28;20437;-65
2021/01/16 01:10:47;;;;;;;10.65;4.00;;;;;;;14.79;67.92;100643.50;5012606;28;20454;-64
2021/01/16 01:13:13;;;;;;;2.38;2.15;;;;;;;14.78;67.83;100636.41;5030139;28;20559;-65
2021/01/16 01:15:38;;;;;;;8.65;2.00;;;;;;;14.77;67.62;100637.31;5030218;28;20133;-65
2021/01/16 01:18:03;;;;;;;3.92;2.42;;;;;;;14.77;67.94;100629.31;5029589;28;20046;-65
2021/01/16 01:20:29;;;;;;;4.15;2.10;;;;;;;14.78;67.99;100633.75;5045433;28;20041;-64
2021/01/16 01:22:54;;;;;;;8.68;2.88;;;;;;;14.79;67.68;100629.31;5027035;28;20053;-65
2021/01/16 01:25:20;;;;;;;9.05;4.95;;;;;;;14.80;67.89;100626.66;5029994;28;20506;-64
2021/01/16 01:27:45;;;;;;;6.38;2.85;;;;;;;14.80;67.68;100629.31;5029580;28;20042;-64
2021/01/16 01:30:10;;;;;;;4.78;1.80;;;;;;;14.80;67.84;100620.47;5029708;28;20026;-64
2021/01/16 01:32:36;;;;;;;8.93;2.15;;;;;;;14.80;67.66;100621.34;5028385;28;20053;-65
2021/01/16 01:35:01;;;;;;;2.50;1.52;;;;;;;14.81;68.08;100622.25;5044347;28;20133;-65
2021/01/16 01:37:26;;;;;;;4.00;1.52;;;;;;;14.81;67.89;100604.53;5029701;28;20406;-64
2021/01/16 01:39:52;;;;;;;7.90;1.60;;;;;;;14.82;68.00;100608.06;5048618;28;20049;-64
2021/01/16 01:42:17;;;;;;;4.35;1.48;;;;;;;14.80;67.82;100601.88;5032012;28;20041;-65
2021/01/16 01:44:42;;;;;;;4.03;1.33;;;;;;;14.79;67.98;100597.44;5049295;28;20037;-65
2021/01/16 01:47:08;;;;;;;4.25;2.40;;;;;;;14.77;68.15;100600.97;5031538;28;20413;-65
2021/01/16 01:49:33;;;;;;;5.50;2.30;;;;;;;14.74;67.67;100601.00;5033664;28;20060;-63
2021/01/16 01:51:58;;;;;;;5.53;3.20;;;;;;;14.69;67.75;100596.59;5045048;28;20793;-67
2021/01/16 01:54:24;;;;;;;13.43;5.00;;;;;;;14.66;68.30;100596.59;5031621;28;20120;-65
2021/01/16 01:56:49;;;;;;;18.65;6.22;;;;;;;14.65;67.96;100584.22;5014649;28;20525;-65
2021/01/16 01:59:14;;;;;;;5.80;2.72;;;;;;;14.64;68.10;100585.97;5013788;28;20592;-65
2021/01/16 02:01:40;;;;;;;7.85;2.35;;;;;;;14.66;67.96;100585.97;5029090;28;20034;-64
2021/01/16 02:04:05;;;;;;;4.22;1.65;;;;;;;14.66;68.11;100581.56;5045603;28;20045;-65
2021/01/16 02:06:30;;;;;;;4.00;1.20;;;;;;;14.67;67.83;100577.13;5035566;28;20042;-64
2021/01/16 02:08:56;;;;;;;5.55;1.40;;;;;;;14.65;68.12;100570.91;5032780;28;20042;-64
2021/01/16 02:11:22;;;;;;;4.40;1.65;;;;;;;14.64;67.82;100566.50;5033496;28;20041;-64
2021/01/16 02:13:47;;;;;;;7.32;3.38;;;;;;;14.64;68.29;100564.72;5029781;28;20049;-65
2021/01/16 02:16:12;;;;;;;5.28;3.40;;;;;;;14.65;67.82;100562.94;5033102;28;20025;-64
2021/01/16 02:18:38;;;;;;;14.32;3.92;;;;;;;14.64;68.19;100551.44;5032963;28;20049;-64
2021/01/16 02:21:03;;;;;;;3.75;1.63;;;;;;;14.65;67.97;100547.00;5032698;28;20049;-65
2021/01/16 02:23:28;;;;;;;5.63;1.45;;;;;;;14.64;68.19;100550.56;5019494;28;20120;-64
2021/01/16 02:25:54;;;;;;;4.28;1.20;;;;;;;14.64;68.16;100545.25;5028025;28;20503;-65
2021/01/16 02:28:19;;;;;;;9.18;1.10;;;;;;;14.64;67.90;100531.97;5014442;28;20046;-65
2021/01/16 02:30:44;;;;;;;3.00;1.30;;;;;;;14.64;68.02;100524.88;5013352;28;20034;-65
2021/01/16 02:33:10;;;;;;;7.45;1.38;;;;;;;14.62;68.11;100526.69;5035325;28;20140;-65
2021/01/16 02:35:35;;;;;;;11.18;1.50;;;;;;;14.59;68.11;100521.38;5048436;28;20072;-64
2021/01/16 02:38:00;;;;;;;12.50;5.75;;;;;;;14.51;68.13;100514.31;5023581;28;20409;-65
2021/01/16 02:40:26;;;;;;;7.18;3.90;;;;;;;14.41;68.23;100523.22;5030977;28;20397;-65
2021/01/16 02:42:51;;;;;;;9.40;3.22;;;;;;;14.34;68.18;100520.56;5031942;28;20045;-65
2021/01/16 02:45:17;;;;;;;17.08;7.68;;;;;;;14.34;68.21;100520.56;5032756;28;20468;-65
2021/01/16 02:47:42;;;;;;;16.42;4.28;;;;;;;14.36;68.31;100518.78;5036210;28;20375;-65
2021/01/16 02:50:07;;;;;;;7.18;1.70;;;;;;;14.39;68.22;100517.91;5032190;28;20540;-65
2021/01/16 02:52:33;;;;;;;3.15;1.05;;;;;;;14.41;68.33;100518.78;5028075;28;20563;-65
2021/01/16 02:54:58;;;;;;;13.77;8.43;;;;;;;14.44;68.13;100524.06;5030869;28;20038;-64
2021/01/16 02:57:23;;;;;;;13.95;7.88;;;;;;;14.45;68.27;100520.53;5030982;28;20121;-64
2021/01/16 02:59:49;;;;;;;6.43;3.92;;;;;;;14.46;68.28;100526.72;5032117;28;20069;-65
2021/01/16 03:02:14;;;;;;;4.97;3.70;;;;;;;14.45;68.37;100528.50;5030283;28;20441;-65
2021/01/16 03:04:40;;;;;;;9.23;2.10;;;;;;;14.45;68.44;100528.50;5031941;28;20041;-65
2021/01/16 03:07:05;;;;;;;2.67;1.45;;;;;;;14.43;67.91;100527.66;5030273;28;20056;-65
2021/01/16 03:09:30;;;;;;;4.75;1.20;;;;;;;14.42;67.89;100522.34;5047344;28;20496;-65
2021/01/16 03:11:56;;;;;;;4.85;1.08;;;;;;;14.40;67.99;100508.16;5030564;28;20037;-65
2021/01/16 03:14:21;;;;;;;6.65;1.05;;;;;;;14.39;67.99;100507.28;5042682;28;20060;-64
2021/01/16 03:16:46;;;;;;;6.55;1.48;;;;;;;14.31;68.38;100504.63;5032053;28;20045;-65
2021/01/16 03:19:12;;;;;;;4.70;0.90;;;;;;;14.26;68.02;100509.06;5030683;28;20038;-64
2021/01/16 03:21:37;;;;;;;7.68;0.95;;;;;;;14.23;68.11;100503.78;5032221;28;20398;-64
2021/01/16 03:24:02;;;;;;;5.10;1.00;;;;;;;14.23;68.10;100501.13;5031214;28;20106;-65
2021/01/16 03:26:28;;;;;;;3.58;1.35;;;;;;;14.21;68.15;100502.00;5045502;28;20045;-65
2021/01/16 03:28:53;;;;;;;6.90;4.25;;;;;;;14.19;68.34;100495.81;5031056;28;20399;-65
2021/01/16 03:31:18;;;;;;;6.75;3.75;;;;;;;14.22;68.40;100495.81;5047324;28;20045;-65
2021/01/16 03:33:44;;;;;;;16.73;4.43;;;;;;;14.25;68.46;100490.47;5022547;28;20042;-64
2021/01/16 03:36:09;;;;;;;4.72;1.15;;;;;;;14.28;68.29;100495.78;5029820;28;20559;-65
2021/01/16 03:38:34;;;;;;;1.92;1.60;;;;;;;14.27;68.11;100491.38;5047104;28;20036;-65
2021/01/16 03:41:00;;;;;;;2.70;0.90;;;;;;;14.24;68.26;100491.41;5022446;28;20045;-64
2021/01/16 03:43:25;;;;;;;2.70;1.00;;;;;;;14.19;68.14;100488.75;5025258;28;20074;-64
2021/01/16 03:45:50;;;;;;;2.35;1.05;;;;;;;14.15;68.65;100491.41;5030798;28;20045;-64
2021/01/16 03:48:16;;;;;;;2.08;0.98;;;;;;;14.06;68.38;100487.00;5031326;28;20096;-64
2021/01/16 03:50:41;;;;;;;5.93;1.60;;;;;;;13.98;68.05;100481.72;5031115;28;20049;-64
2021/01/16 03:53:06;;;;;;;6.78;5.03;;;;;;;13.88;68.21;100493.25;5018099;28;20077;-65
2021/01/16 03:55:32;;;;;;;12.63;7.18;;;;;;;13.80;68.54;100481.78;5017031;28;20034;-65
2021/01/16 03:57:57;;;;;;;15.40;7.60;;;;;;;13.78;68.12;100485.34;5027893;28;20124;-65
2021/01/16 04:00:23;;;;;;;7.32;5.43;;;;;;;13.79;68.06;100487.06;5030390;28;20422;-64
2021/01/16 04:02:48;;;;;;;10.60;6.05;;;;;;;13.79;68.57;100485.31;5028465;28;20053;-65
2021/01/16 04:05:13;;;;;;;7.65;4.40;;;;;;;13.81;68.74;100483.56;5031120;28;20045;-65
2021/01/16 04:07:39;;;;;;;2.28;1.10;;;;;;;13.83;67.98;100476.47;5030832;28;20502;-64
2021/01/16 04:10:04;;;;;;;3.10;1.35;;;;;;;13.85;68.48;100473.78;5029157;28;20455;-65
2021/01/16 04:12:29;;;;;;;4.50;1.40;;;;;;;13.82;68.21;100482.66;5016412;28;20489;-64
2021/01/16 04:14:55;;;;;;;4.65;1.30;;;;;;;13.79;68.54;100477.34;5030364;28;20041;-64
2021/01/16 04:17:20;;;;;;;5.68;1.60;;;;;;;13.76;68.09;100473.84;5046184;28;20038;-64
2021/01/16 04:19:46;;;;;;;3.67;1.10;;;;;;;13.74;68.15;100479.13;5030719;28;20437;-64
2021/01/16 04:22:11;;;;;;;4.40;1.08;;;;;;;13.73;68.40;100476.47;5028536;28;20061;-66
2021/01/16 04:24:36;;;;;;;8.48;4.22;;;;;;;13.71;68.15;100479.16;5026774;28;20095;-65
2021/01/16 04:27:02;;;;;;;18.88;9.00;;;;;;;13.68;68.72;100470.31;5022434;28;20156;-64
2021/01/16 04:29:27;;;;;;;53.70;23.50;;;;;;;13.63;67.94;100469.44;5028736;28;20409;-65
2021/01/16 04:31:52;;;;;;;18.98;5.55;;;;;;;13.58;68.25;100469.47;5029002;28;20042;-65
2021/01/16 04:34:18;;;;;;;7.30;2.90;;;;;;;13.56;68.49;100460.59;5029367;28;20573;-65
2021/01/16 04:36:43;;;;;;;4.22;2.20;;;;;;;13.55;68.08;100461.50;5020887;28;20042;-65
2021/01/16 04:39:09;;;;;;;7.28;5.50;;;;;;;13.51;68.38;100459.75;5011504;28;20121;-64
2021/01/16 04:41:34;;;;;;;17.00;7.43;;;;;;;13.44;68.12;100457.97;5011016;28;20038;-64
2021/01/16 04:43:59;;;;;;;24.05;12.15;;;;;;;13.34;68.51;100449.13;5028270;28;20486;-64
2021/01/16 04:46:25;;;;;;;24.85;16.52;;;;;;;13.29;68.17;100450.91;5024667;28;20046;-65
2021/01/16 04:48:50;;;;;;;13.15;6.50;;;;;;;13.23;68.56;100445.63;5019987;28;20129;-64
2021/01/16 04:51:16;;;;;;;6.75;3.00;;;;;;;13.20;68.52;100447.38;5031948;28;20046;-65
2021/01/16 04:53:41;;;;;;;6.43;1.98;;;;;;;13.18;68.46;100444.75;5010561;28;20046;-65
2021/01/16 04:56:07;;;;;;;5.25;1.80;;;;;;;13.21;67.98;100441.19;5012532;28;22587;-64
2021/01/16 04:58:32;;;;;;;4.47;1.58;;;;;;;13.20;68.72;100442.94;5030002;28;20052;-64
2021/01/16 05:00:57;;;;;;;5.88;2.95;;;;;;;13.15;69.02;100437.66;5042947;28;20037;-64
2021/01/16 05:03:23;;;;;;;5.07;3.20;;;;;;;13.11;68.04;100435.88;5027409;28;20049;-64
2021/01/16 05:05:48;;;;;;;12.98;3.35;;;;;;;13.09;68.31;100427.03;5016309;28;20407;-64
2021/01/16 05:08:13;;;;;;;7.05;2.67;;;;;;;13.07;68.94;100426.13;5029094;28;20047;-64
2021/01/16 05:10:39;;;;;;;5.60;2.85;;;;;;;13.06;68.74;100423.50;5030194;28;20072;-64
2021/01/16 05:13:04;;;;;;;8.18;4.80;;;;;;;13.01;68.82;100415.53;5034935;28;20069;-64
2021/01/16 05:15:30;;;;;;;7.25;3.97;;;;;;;12.96;68.88;100417.31;5010272;28;20042;-64
2021/01/16 05:17:55;;;;;;;13.73;7.88;;;;;;;12.95;68.35;100425.25;5028095;28;20052;-65
2021/01/16 05:20:21;;;;;;;20.83;13.40;;;;;;;12.94;68.46;100411.13;5045409;28;20075;-64
2021/01/16 05:22:46;;;;;;;15.57;10.10;;;;;;;12.98;68.53;100391.72;5029670;28;20041;-65
2021/01/16 05:25:12;;;;;;;9.20;5.75;;;;;;;13.06;68.72;100394.38;5029659;28;20049;-64
2021/01/16 05:27:37;;;;;;;8.00;5.75;;;;;;;13.12;68.24;100397.94;5030118;28;20045;-64
2021/01/16 05:30:02;;;;;;;14.20;6.68;;;;;;;13.16;69.02;100398.78;5029417;28;20045;-65
2021/01/16 05:32:28;;;;;;;13.93;7.88;;;;;;;13.22;68.79;100397.91;5043586;28;20034;-64
2021/01/16 05:34:53;;;;;;;27.65;17.40;;;;;;;13.22;68.62;100398.78;5021184;28;20497;-64
2021/01/16 05:37:18;;;;;;;14.45;6.72;;;;;;;13.15;68.59;100392.59;5029800;28;20103;-64
2021/01/16 05:39:44;;;;;;;6.03;4.03;;;;;;;13.17;68.50;100389.97;5030108;28;20048;-64
2021/01/16 05:42:09;;;;;;;6.40;2.20;;;;;;;13.23;68.68;100389.97;5028757;28;20037;-64
2021/01/16 05:44:34;;;;;;;2.63;1.48;;;;;;;13.31;68.86;100390.84;5027455;28;20053;-64
2021/01/16 05:47:00;;;;;;;3.35;1.10;;;;;;;13.40;68.50;100388.16;5028990;28;20046;-65
2021/01/16 05:49:25;;;;;;;8.38;1.73;;;;;;;13.48;68.12;100380.19;5045335;28;20375;-64
2021/01/16 05:51:50;;;;;;;6.38;0.98;;;;;;;13.53;68.65;100381.94;5021722;28;20128;-65
2021/01/16 05:54:16;;;;;;;8.13;1.60;;;;;;;13.64;68.57;100383.69;5033553;28;20046;-64
2021/01/16 05:56:41;;;;;;;4.78;3.20;;;;;;;13.72;68.24;100374.78;5010307;28;20057;-64
2021/01/16 05:59:06;;;;;;;30.13;18.48;;;;;;;13.80;68.22;100374.78;5022861;28;20041;-64
2021/01/16 06:01:32;;;;;;;44.15;36.95;;;;;;;13.89;67.94;100374.75;5028512;28;20057;-65
2021/01/16 06:03:57;;;;;;;25.60;23.00;;;;;;;13.95;67.94;100366.75;5039088;28;20103;-64
2021/01/16 06:06:22;;;;;;;10.52;9.40;;;;;;;14.01;68.03;100360.53;5042334;28;20183;-64
2021/01/16 06:08:48;;;;;;;7.47;4.43;;;;;;;14.10;68.02;100360.50;5044932;28;20038;-65
2021/01/16 06:11:13;;;;;;;10.23;3.67;;;;;;;14.22;67.99;100368.38;5024479;28;20128;-64
2021/01/16 06:13:38;;;;;;;5.13;4.18;;;;;;;14.30;68.06;100364.81;5014338;28;20049;-65
2021/01/16 06:16:04;;;;;;;8.38;6.03;;;;;;;14.33;67.87;100371.84;5019835;28;20514;-64
2021/01/16 06:18:32;;;;;;;27.67;17.83;;;;;;;14.32;67.98;100368.31;5029556;28;20457;-64
2021/01/16 06:20:57;;;;;;;13.02;8.18;;;;;;;14.36;67.96;100372.72;5012735;28;20045;-65
2021/01/16 06:23:23;;;;;;;15.15;7.68;;;;;;;14.43;67.29;100370.06;5024233;28;20409;-65
2021/01/16 06:25:49;;;;;;;16.95;12.60;;;;;;;14.53;67.55;100361.13;5031448;28;20045;-64
2021/01/16 06:28:14;;;;;;;22.45;17.52;;;;;;;14.63;67.88;100352.22;4998526;28;20498;-65
2021/01/16 06:30:39;;;;;;;27.35;18.27;;;;;;;14.67;67.52;100348.63;5013127;28;20041;-65
2021/01/16 06:33:05;;;;;;;16.02;10.80;;;;;;;14.64;67.54;100348.66;5007113;28;20056;-65
2021/01/16 06:35:30;;;;;;;24.58;14.45;;;;;;;14.61;67.56;100346.91;5031427;28;20128;-65
2021/01/16 06:37:56;;;;;;;20.38;15.48;;;;;;;14.66;67.22;100337.13;5031147;28;20045;-64
2021/01/16 06:40:21;;;;;;;28.13;15.63;;;;;;;14.74;67.63;100335.28;5019681;28;20564;-65
2021/01/16 06:42:46;;;;;;;29.83;20.88;;;;;;;14.85;67.42;100332.53;5027847;28;20348;-65
2021/01/16 06:45:12;;;;;;;30.02;20.95;;;;;;;14.97;67.27;100331.53;5023793;28;20068;-65
2021/01/16 06:47:37;;;;;;;32.92;21.08;;;;;;;15.06;67.09;100320.81;5031227;28;20041;-65
2021/01/16 06:50:03;;;;;;;30.48;24.35;;;;;;;15.12;66.87;100316.34;5031486;28;20693;-65
2021/01/16 06:52:28;;;;;;;41.58;32.90;;;;;;;15.19;67.09;100322.47;5031329;28;20423;-64
2021/01/16 06:54:53;;;;;;;45.60;39.17;;;;;;;15.23;67.20;100324.19;5027370;28;20048;-65
2021/01/16 06:57:19;;;;;;;49.42;43.15;;;;;;;15.33;67.14;100320.53;5030952;28;20107;-65
2021/01/16 06:59:44;;;;;;;57.00;43.80;;;;;;;15.45;66.82;100311.53;5031816;28;20045;-65
2021/01/16 07:02:09;;;;;;;56.05;46.90;;;;;;;15.59;66.82;100311.41;5031665;28;20072;-65
2021/01/16 07:04:35;;;;;;;55.47;42.33;;;;;;;15.72;66.80;100313.03;5032066;28;20060;-65
2021/01/16 07:07:00;;;;;;;33.15;26.00;;;;;;;15.84;66.68;100304.88;5030995;28;20065;-65
2021/01/16 07:09:25;;;;;;;24.90;14.85;;;;;;;15.97;66.39;100309.13;5032261;28;20494;-65
2021/01/16 07:11:51;;;;;;;20.60;9.93;;;;;;;16.03;66.95;100310.81;5031282;28;20073;-65
2021/01/16 07:14:16;;;;;;;9.27;3.78;;;;;;;16.04;66.24;100318.81;5027065;28;20038;-65
2021/01/16 07:16:42;;;;;;;8.60;2.20;;;;;;;16.00;66.92;100316.22;5022964;28;20042;-65
2021/01/16 07:19:08;;;;;;;6.93;1.50;;;;;;;15.92;66.71;100321.63;5024652;28;20046;-65
2021/01/16 07:21:33;;;;;;;12.48;1.10;;;;;;;15.89;66.82;100321.66;5032239;28;20117;-65
2021/01/16 07:23:58;;;;;;;2.95;0.80;;;;;;;15.88;66.45;100315.44;5017765;28;20434;-65
2021/01/16 07:26:26;;;;;;;2.88;0.70;;;;;;;15.93;66.76;100320.75;5031677;28;20042;-64
2021/01/16 07:28:52;;;;;;;6.93;0.60;;;;;;;16.02;66.47;100311.72;5026723;28;20092;-65
2021/01/16 07:31:17;;;;;;;2.45;1.20;;;;;;;16.10;66.65;100312.50;5022060;28;20049;-64
2021/01/16 07:33:43;;;;;;;2.80;1.80;;;;;;;16.21;66.58;100306.13;5029975;28;20119;-65
2021/01/16 07:36:08;;;;;;;11.38;8.07;;;;;;;16.28;66.05;100305.13;5030575;28;20029;-65
2021/01/16 07:38:34;;;;;;;17.75;12.52;;;;;;;16.33;66.39;100311.28;5031294;28;20078;-66
2021/01/16 07:40:59;;;;;;;19.85;15.93;;;;;;;16.38;66.07;100308.53;5031342;28;20042;-67
2021/01/16 07:43:24;;;;;;;22.05;18.10;;;;;;;16.36;65.97;100299.69;5026742;28;20099;-64
2021/01/16 07:45:50;;;;;;;27.38;21.45;;;;;;;16.36;66.00;100302.34;5024993;28;20561;-64
2021/01/16 07:48:15;;;;;;;29.23;22.80;;;;;;;16.29;66.14;100312.22;5027494;28;20053;-63
2021/01/16 07:50:40;;;;;;;19.00;16.30;;;;;;;16.26;66.32;100304.28;5031268;28;20057;-62
2021/01/16 07:53:06;;;;;;;22.83;17.75;;;;;;;16.30;66.27;100310.44;5030474;28;20041;-63
2021/01/16 07:55:31;;;;;;;19.92;12.32;;;;;;;16.39;66.40;100302.31;5028571;28;20067;-63
2021/01/16 07:57:57;;;;;;;11.98;6.32;;;;;;;16.56;66.46;100302.03;5029081;28;20037;-63
2021/01/16 08:00:22;;;;;;;7.30;4.15;;;;;;;16.71;65.89;100305.38;5029253;28;20065;-65
2021/01/16 08:02:47;;;;;;;6.03;3.50;;;;;;;16.93;65.50;100295.22;5024176;28;20494;-64
2021/01/16 08:05:13;;;;;;;6.05;2.88;;;;;;;17.16;65.53;100301.91;5034420;28;20398;-64
2021/01/16 08:07:38;;;;;;;10.15;4.95;;;;;;;17.62;65.28;100291.25;5031205;28;20045;-65
2021/01/16 08:10:03;;;;;;;9.10;6.80;;;;;;;18.30;64.41;100295.06;5028779;28;20037;-65
2021/01/16 08:12:29;;;;;;;8.23;2.60;;;;;;;18.66;64.56;100290.63;5039477;28;20061;-65
2021/01/16 08:14:54;;;;;;;4.93;1.10;;;;;;;18.46;64.31;100283.09;5026169;28;20049;-64
2021/01/16 08:17:20;;;;;;;4.30;0.82;;;;;;;18.22;63.96;100292.56;5035622;28;20090;-65
2021/01/16 08:19:45;;;;;;;8.07;2.20;;;;;;;18.05;64.73;100292.06;5024113;28;20049;-65
2021/01/16 08:22:10;;;;;;;8.55;1.45;;;;;;;17.92;64.24;100296.78;5025407;28;20048;-67
2021/01/16 08:24:36;;;;;;;11.13;2.95;;;;;;;17.79;64.50;100295.31;5030085;28;20041;-65
2021/01/16 08:27:01;;;;;;;11.65;5.15;;;;;;;17.69;64.92;100300.88;5014412;28;20068;-65
2021/01/16 08:29:27;;;;;;;34.75;25.13;;;;;;;17.65;64.27;100289.41;5030128;28;20490;-66
2021/01/16 08:31:52;;;;;;;139.43;80.35;;;;;;;17.75;64.47;100287.41;5029541;28;20041;-65
2021/01/16 08:34:17;;;;;;;22.73;16.80;;;;;;;17.78;64.16;100272.22;5030186;28;20083;-64
2021/01/16 08:36:44;;;;;;;17.35;5.50;;;;;;;17.72;64.45;100271.47;5025736;28;20050;-64
2021/01/16 08:39:09;;;;;;;17.45;8.70;;;;;;;17.66;64.35;100256.44;5029881;28;20053;-65
2021/01/16 08:41:36;;;;;;;16.65;7.00;;;;;;;17.61;64.60;100258.31;5029981;28;20044;-84
2021/01/16 08:44:01;;;;;;;15.18;10.52;;;;;;;17.52;64.54;100262.03;5027911;28;20041;-65
2021/01/16 08:46:27;;;;;;;42.53;31.13;;;;;;;17.41;65.27;100271.16;5024333;28;20100;-69
2021/01/16 08:48:52;;;;;;;27.65;11.70;;;;;;;17.29;64.90;100276.75;5026756;28;20052;-66
2021/01/16 08:51:17;;;;;;;24.05;13.10;;;;;;;17.23;65.02;100240.41;5028082;28;20566;-67
2021/01/16 08:53:43;;;;;;;11.75;6.05;;;;;;;17.36;64.81;100231.25;5028371;28;20037;-66
2021/01/16 08:56:08;;;;;;;27.15;22.10;;;;;;;17.68;65.14;100232.38;5029376;28;20038;-67
2021/01/16 08:58:34;;;;;;;32.30;28.33;;;;;;;18.03;64.75;100231.59;5029363;28;20118;-68
2021/01/16 09:00:59;;;;;;;35.58;29.85;;;;;;;18.40;64.51;100242.25;5029141;28;20026;-69
2021/01/16 09:03:24;;;;;;;23.80;17.15;;;;;;;18.73;64.10;100225.41;5025971;28;20045;-66
2021/01/16 09:05:51;;;;;;;15.57;2.40;;;;;;;18.96;63.74;100204.28;5020418;28;20716;-67
2021/01/16 09:08:17;;;;;;;16.00;1.90;;;;;;;19.34;63.73;100194.25;5027679;28;20045;-67
2021/01/16 09:10:42;;;;;;;15.52;1.98;;;;;;;19.82;62.91;100181.22;5031592;28;20616;-67
2021/01/16 09:13:07;;;;;;;12.27;1.52;;;;;;;19.84;62.98;100165.97;5043861;28;20068;-67
2021/01/16 09:15:39;;;;;;;13.93;1.75;;;;;;;19.60;62.77;100151.56;5027487;28;20053;-67
2021/01/16 09:18:05;;;;;;;19.02;2.53;;;;;;;19.40;63.03;100151.25;5026219;28;20034;-66
2021/01/16 09:20:30;;;;;;;16.80;3.42;;;;;;;19.30;62.71;100139.06;5008997;28;20076;-66
2021/01/16 09:22:55;;;;;;;18.85;3.05;;;;;;;19.25;63.11;100127.63;5008371;28;20450;-67
2021/01/16 09:25:21;;;;;;;15.57;2.25;;;;;;;19.26;63.11;100124.00;4990787;28;20058;-66
2021/01/16 09:27:46;;;;;;;21.90;6.32;;;;;;;19.33;62.87;100107.72;5006630;28;20098;-67
2021/01/16 09:30:12;;;;;;;40.05;24.30;;;;;;;19.55;62.75;100107.09;5025208;28;20033;-67
2021/01/16 09:32:38;;;;;;;44.33;27.67;;;;;;;19.75;62.66;100115.38;5010377;28;20089;-67
2021/01/16 09:35:03;;;;;;;14.77;3.90;;;;;;;19.94;62.53;100132.59;5025065;28;20050;-67
2021/01/16 09:37:29;;;;;;;27.52;3.47;;;;;;;19.89;62.50;100126.50;5026415;28;20553;-66
2021/01/16 09:39:54;;;;;;;19.95;2.00;;;;;;;19.84;62.38;100126.66;5024959;28;20040;-66
2021/01/16 09:42:20;;;;;;;16.20;2.00;;;;;;;19.79;62.05;100131.28;5012617;28;20137;-66
2021/01/16 09:44:46;;;;;;;15.35;2.22;;;;;;;19.77;62.27;100134.94;5043277;28;20046;-66
2021/01/16 09:47:11;;;;;;;12.32;2.17;;;;;;;19.72;62.30;100127.06;5029631;28;20441;-67
2021/01/16 09:49:36;;;;;;;22.75;2.08;;;;;;;19.68;62.20;100120.06;5029982;28;20450;-67
2021/01/16 09:52:02;;;;;;;16.63;1.92;;;;;;;19.66;61.92;100110.31;5029320;28;20037;-66
2021/01/16 09:54:27;;;;;;;16.40;2.70;;;;;;;20.03;61.35;100109.97;5028376;28;20053;-67
2021/01/16 09:56:52;;;;;;;18.98;2.92;;;;;;;20.33;60.93;100105.41;5028896;28;20395;-67
2021/01/16 09:59:18;;;;;;;23.63;8.77;;;;;;;20.62;60.97;100095.38;5037840;28;20042;-66
2021/01/16 10:01:43;;;;;;;40.55;18.15;;;;;;;20.96;60.69;100086.09;5032880;28;20128;-67
2021/01/16 10:04:08;;;;;;;30.02;19.30;;;;;;;21.14;59.95;100073.78;5033123;28;20530;-67
2021/01/16 10:06:34;;;;;;;22.48;9.48;;;;;;;21.16;60.22;100069.25;5033884;28;20160;-66
2021/01/16 10:08:59;;;;;;;17.08;5.60;;;;;;;21.13;60.20;100064.88;5032923;28;20393;-66
2021/01/16 10:11:25;;;;;;;16.60;2.65;;;;;;;21.13;59.97;100061.31;5033662;28;20033;-66
2021/01/16 10:13:50;;;;;;;16.05;3.80;;;;;;;21.11;59.82;100058.69;5033094;28;20207;-66
2021/01/16 10:16:15;;;;;;;20.90;4.05;;;;;;;21.08;60.12;100046.25;5031282;28;20053;-67
2021/01/16 10:18:41;;;;;;;15.98;4.82;;;;;;;20.99;60.12;100043.06;5032360;28;20041;-67
2021/01/16 10:21:06;;;;;;;16.98;2.35;;;;;;;20.86;59.57;100039.97;5031604;28;20037;-67
2021/01/16 10:23:32;;;;;;;15.57;3.38;;;;;;;20.75;60.06;100036.78;5030699;28;20037;-67
2021/01/16 10:25:57;;;;;;;14.65;2.20;;;;;;;20.70;59.58;100044.16;5041022;28;20029;-67
2021/01/16 10:28:22;;;;;;;15.43;3.28;;;;;;;20.72;59.72;100041.41;5048450;28;20514;-67
2021/01/16 10:30:48;;;;;;;18.42;2.40;;;;;;;20.74;59.62;100036.88;5033082;28;20033;-67
2021/01/16 10:33:13;;;;;;;11.75;2.42;;;;;;;20.72;59.66;100026.19;5032328;28;20098;-67
2021/01/16 10:35:38;;;;;;;15.40;1.67;;;;;;;20.66;59.40;100030.00;5024481;28;20168;-67
2021/01/16 10:38:04;;;;;;;18.40;2.65;;;;;;;20.63;59.67;100024.72;5032419;28;20038;-67
2021/01/16 10:40:29;;;;;;;27.45;5.65;;;;;;;20.58;59.29;100015.97;5047977;28;20065;-67
2021/01/16 10:42:54;;;;;;;18.42;2.88;;;;;;;20.54;59.56;100009.00;5031653;28;20033;-67
2021/01/16 10:45:20;;;;;;;18.33;2.38;;;;;;;20.52;59.60;100002.81;5031316;28;20045;-68
2021/01/16 10:47:46;;;;;;;16.00;3.65;;;;;;;20.47;59.41;100009.28;5031453;28;20049;-68
2021/01/16 10:50:11;;;;;;;40.10;3.00;;;;;;;20.40;59.35;99987.19;5032085;28;20398;-68
2021/01/16 10:52:36;;;;;;;13.82;2.63;;;;;;;20.38;59.03;99985.47;5047797;28;20053;-69
2021/01/16 10:55:02;;;;;;;15.73;2.72;;;;;;;20.36;59.17;99982.84;5036583;28;20565;-70
2021/01/16 10:57:28;;;;;;;17.67;2.40;;;;;;;20.34;59.11;99963.28;5029767;28;20053;-69
2021/01/16 10:59:54;;;;;;;16.15;2.97;;;;;;;20.33;58.94;99968.69;5029800;28;20398;-69
2021/01/16 11:02:19;;;;;;;22.33;3.20;;;;;;;20.28;58.57;99958.13;5027084;28;20045;-69
2021/01/16 11:04:45;;;;;;;14.43;2.38;;;;;;;20.23;58.33;99960.94;5021148;28;20041;-68
2021/01/16 11:07:10;;;;;;;19.13;2.42;;;;;;;20.18;58.26;99951.31;5013495;28;20049;-70
2021/01/16 11:09:36;;;;;;;24.98;2.92;;;;;;;20.14;58.08;99936.31;5038354;28;20046;-70